sensor_id;sensor_type;location;lat;lon;timestamp;P1;durP1;ratioP1;P2;durP2;ratioP2
5339;SDS011;2692;48.848;8.924;2023-12-22T00:00:34;7.70;;;1.20;;
5339;SDS011;2692;48.848;8.924;2023-12-22T00:02:59;1.20;;;0.80;;
5339;SDS011;2692;48.848;8.924;2023-12-22T00:05:24;1.33;;;0.57;;
5339;SDS011;2692;48.848;8.924;2023-12-22T00:07:51;1.40;;;0.70;;
5339;SDS011;2692;48.848;8.924;2023-12-22T00:10:16;1.67;;;0.70;;
5339;SDS011;2692;48.848;8.924;2023-12-22T00:12:41;1.17;;;0.60;;
5339;SDS011;2692;48.848;8.924;2023-12-22T00:15:07;2.40;;;0.70;;
5339;SDS011;2692;48.848;8.924;2023-12-22T00:17:32;0.90;;;0.50;;
5339;SDS011;2692;48.848;8.924;2023-12-22T00:19:57;1.67;;;0.50;;
5339;SDS011;2692;48.848;8.924;2023-12-22T00:22:24;4.20;;;0.97;;
5339;SDS011;2692;48.848;8.924;2023-12-22T00:24:53;1.20;;;0.50;;
5339;SDS011;2692;48.848;8.924;2023-12-22T00:27:18;0.90;;;0.50;;
5339;SDS011;2692;48.848;8.924;2023-12-22T00:29:43;1.57;;;0.50;;
5339;SDS011;2692;48.848;8.924;2023-12-22T00:32:09;1.13;;;0.50;;
5339;SDS011;2692;48.848;8.924;2023-12-22T00:34:34;1.57;;;0.70;;
5339;SDS011;2692;48.848;8.924;2023-12-22T00:37:00;1.30;;;0.43;;
5339;SDS011;2692;48.848;8.924;2023-12-22T00:39:25;1.00;;;0.50;;
5339;SDS011;2692;48.848;8.924;2023-12-22T00:41:50;2.57;;;1.00;;
5339;SDS011;2692;48.848;8.924;2023-12-22T00:44:16;1.23;;;0.50;;
5339;SDS011;2692;48.848;8.924;2023-12-22T00:46:41;0.80;;;0.43;;
5339;SDS011;2692;48.848;8.924;2023-12-22T00:49:06;1.00;;;0.50;;
5339;SDS011;2692;48.848;8.924;2023-12-22T00:51:32;1.33;;;0.60;;
5339;SDS011;2692;48.848;8.924;2023-12-22T00:53:57;1.47;;;0.63;;
5339;SDS011;2692;48.848;8.924;2023-12-22T00:56:22;2.50;;;1.10;;
5339;SDS011;2692;48.848;8.924;2023-12-22T00:58:48;3.17;;;1.00;;
5339;SDS011;2692;48.848;8.924;2023-12-22T01:01:13;1.27;;;0.47;;
5339;SDS011;2692;48.848;8.924;2023-12-22T01:03:38;1.07;;;0.60;;
5339;SDS011;2692;48.848;8.924;2023-12-22T01:06:04;3.27;;;1.17;;
5339;SDS011;2692;48.848;8.924;2023-12-22T01:08:29;2.00;;;0.63;;
5339;SDS011;2692;48.848;8.924;2023-12-22T01:10:54;1.20;;;0.60;;
5339;SDS011;2692;48.848;8.924;2023-12-22T01:13:19;0.90;;;0.40;;
5339;SDS011;2692;48.848;8.924;2023-12-22T01:15:45;0.90;;;0.50;;
5339;SDS011;2692;48.848;8.924;2023-12-22T01:18:10;0.90;;;0.40;;
5339;SDS011;2692;48.848;8.924;2023-12-22T01:20:36;1.20;;;0.60;;
5339;SDS011;2692;48.848;8.924;2023-12-22T01:23:01;1.33;;;0.50;;
5339;SDS011;2692;48.848;8.924;2023-12-22T01:25:26;1.10;;;0.60;;
5339;SDS011;2692;48.848;8.924;2023-12-22T01:27:52;0.90;;;0.37;;
5339;SDS011;2692;48.848;8.924;2023-12-22T01:30:17;0.90;;;0.50;;
5339;SDS011;2692;48.848;8.924;2023-12-22T01:32:43;1.53;;;0.70;;
5339;SDS011;2692;48.848;8.924;2023-12-22T01:35:08;1.10;;;0.50;;
5339;SDS011;2692;48.848;8.924;2023-12-22T01:37:38;1.10;;;0.70;;
5339;SDS011;2692;48.848;8.924;2023-12-22T01:40:03;2.10;;;0.60;;
5339;SDS011;2692;48.848;8.924;2023-12-22T01:42:29;0.90;;;0.33;;
5339;SDS011;2692;48.848;8.924;2023-12-22T01:44:55;1.10;;;0.50;;
5339;SDS011;2692;48.848;8.924;2023-12-22T01:47:20;1.00;;;0.47;;
5339;SDS011;2692;48.848;8.924;2023-12-22T01:49:45;1.10;;;0.40;;
5339;SDS011;2692;48.848;8.924;2023-12-22T01:52:11;0.80;;;0.33;;
5339;SDS011;2692;48.848;8.924;2023-12-22T01:54:36;1.10;;;0.33;;
5339;SDS011;2692;48.848;8.924;2023-12-22T01:57:02;0.90;;;0.40;;
5339;SDS011;2692;48.848;8.924;2023-12-22T01:59:28;0.90;;;0.30;;
5339;SDS011;2692;48.848;8.924;2023-12-22T02:01:55;1.30;;;0.50;;
5339;SDS011;2692;48.848;8.924;2023-12-22T02:04:21;0.80;;;0.30;;
5339;SDS011;2692;48.848;8.924;2023-12-22T02:06:47;0.90;;;0.30;;
5339;SDS011;2692;48.848;8.924;2023-12-22T02:09:12;1.03;;;0.50;;
5339;SDS011;2692;48.848;8.924;2023-12-22T02:11:38;1.10;;;0.60;;
5339;SDS011;2692;48.848;8.924;2023-12-22T02:14:04;0.90;;;0.30;;
5339;SDS011;2692;48.848;8.924;2023-12-22T02:16:31;0.80;;;0.27;;
5339;SDS011;2692;48.848;8.924;2023-12-22T02:18:59;1.20;;;0.40;;
5339;SDS011;2692;48.848;8.924;2023-12-22T02:21:29;0.80;;;0.30;;
5339;SDS011;2692;48.848;8.924;2023-12-22T02:23:54;0.80;;;0.30;;
5339;SDS011;2692;48.848;8.924;2023-12-22T02:29:05;1.60;;;0.63;;
5339;SDS011;2692;48.848;8.924;2023-12-22T02:31:36;2.30;;;0.77;;
5339;SDS011;2692;48.848;8.924;2023-12-22T02:34:07;0.90;;;0.40;;
5339;SDS011;2692;48.848;8.924;2023-12-22T02:36:33;1.20;;;0.50;;
5339;SDS011;2692;48.848;8.924;2023-12-22T02:39:00;0.90;;;0.33;;
5339;SDS011;2692;48.848;8.924;2023-12-22T02:41:26;6.60;;;0.70;;
5339;SDS011;2692;48.848;8.924;2023-12-22T02:43:52;7.33;;;0.97;;
5339;SDS011;2692;48.848;8.924;2023-12-22T02:46:17;5.00;;;0.97;;
5339;SDS011;2692;48.848;8.924;2023-12-22T02:48:43;1.13;;;0.53;;
5339;SDS011;2692;48.848;8.924;2023-12-22T02:51:08;0.87;;;0.40;;
5339;SDS011;2692;48.848;8.924;2023-12-22T02:53:33;1.33;;;0.60;;
5339;SDS011;2692;48.848;8.924;2023-12-22T02:55:58;0.80;;;0.30;;
5339;SDS011;2692;48.848;8.924;2023-12-22T02:58:24;1.33;;;0.30;;
5339;SDS011;2692;48.848;8.924;2023-12-22T03:00:49;1.50;;;0.70;;
5339;SDS011;2692;48.848;8.924;2023-12-22T03:03:14;2.70;;;0.77;;
5339;SDS011;2692;48.848;8.924;2023-12-22T03:05:40;1.30;;;0.70;;
5339;SDS011;2692;48.848;8.924;2023-12-22T03:08:05;0.90;;;0.50;;
5339;SDS011;2692;48.848;8.924;2023-12-22T03:10:30;1.67;;;0.60;;
5339;SDS011;2692;48.848;8.924;2023-12-22T03:12:56;1.50;;;0.50;;
5339;SDS011;2692;48.848;8.924;2023-12-22T03:15:21;1.10;;;0.50;;
5339;SDS011;2692;48.848;8.924;2023-12-22T03:17:46;5.97;;;0.93;;
5339;SDS011;2692;48.848;8.924;2023-12-22T03:20:12;2.30;;;0.90;;
5339;SDS011;2692;48.848;8.924;2023-12-22T03:22:37;1.30;;;0.40;;
5339;SDS011;2692;48.848;8.924;2023-12-22T03:25:02;4.60;;;0.77;;
5339;SDS011;2692;48.848;8.924;2023-12-22T03:27:28;0.80;;;0.40;;
5339;SDS011;2692;48.848;8.924;2023-12-22T03:29:53;1.00;;;0.30;;
5339;SDS011;2692;48.848;8.924;2023-12-22T03:32:18;4.80;;;0.50;;
5339;SDS011;2692;48.848;8.924;2023-12-22T03:34:44;2.20;;;0.63;;
5339;SDS011;2692;48.848;8.924;2023-12-22T03:37:09;1.03;;;0.43;;
5339;SDS011;2692;48.848;8.924;2023-12-22T03:39:35;1.73;;;0.67;;
5339;SDS011;2692;48.848;8.924;2023-12-22T03:42:00;2.13;;;0.80;;
5339;SDS011;2692;48.848;8.924;2023-12-22T03:44:25;1.83;;;0.70;;
5339;SDS011;2692;48.848;8.924;2023-12-22T03:46:50;0.90;;;0.50;;
5339;SDS011;2692;48.848;8.924;2023-12-22T03:49:16;1.30;;;0.63;;
5339;SDS011;2692;48.848;8.924;2023-12-22T03:51:42;1.27;;;0.63;;
5339;SDS011;2692;48.848;8.924;2023-12-22T03:54:07;2.33;;;0.70;;
5339;SDS011;2692;48.848;8.924;2023-12-22T03:56:32;0.90;;;0.43;;
5339;SDS011;2692;48.848;8.924;2023-12-22T03:58:58;4.80;;;1.30;;
5339;SDS011;2692;48.848;8.924;2023-12-22T04:01:23;2.30;;;0.90;;
5339;SDS011;2692;48.848;8.924;2023-12-22T04:03:48;1.00;;;0.50;;
5339;SDS011;2692;48.848;8.924;2023-12-22T04:06:14;3.13;;;0.80;;
5339;SDS011;2692;48.848;8.924;2023-12-22T04:08:39;1.27;;;0.80;;
5339;SDS011;2692;48.848;8.924;2023-12-22T04:11:04;2.70;;;0.80;;
5339;SDS011;2692;48.848;8.924;2023-12-22T04:13:29;1.30;;;0.70;;
5339;SDS011;2692;48.848;8.924;2023-12-22T04:15:55;1.00;;;0.60;;
5339;SDS011;2692;48.848;8.924;2023-12-22T04:18:20;2.20;;;0.67;;
5339;SDS011;2692;48.848;8.924;2023-12-22T04:20:45;1.00;;;0.50;;
5339;SDS011;2692;48.848;8.924;2023-12-22T04:23:11;1.20;;;0.60;;
5339;SDS011;2692;48.848;8.924;2023-12-22T04:25:36;1.00;;;0.40;;
5339;SDS011;2692;48.848;8.924;2023-12-22T04:28:01;4.00;;;1.00;;
5339;SDS011;2692;48.848;8.924;2023-12-22T04:30:26;0.90;;;0.40;;
5339;SDS011;2692;48.848;8.924;2023-12-22T04:32:52;1.40;;;0.50;;
5339;SDS011;2692;48.848;8.924;2023-12-22T04:35:18;0.80;;;0.40;;
5339;SDS011;2692;48.848;8.924;2023-12-22T04:37:43;1.30;;;0.40;;
5339;SDS011;2692;48.848;8.924;2023-12-22T04:40:08;1.50;;;0.67;;
5339;SDS011;2692;48.848;8.924;2023-12-22T04:42:34;1.10;;;0.60;;
5339;SDS011;2692;48.848;8.924;2023-12-22T04:44:59;1.53;;;0.90;;
5339;SDS011;2692;48.848;8.924;2023-12-22T04:47:25;1.53;;;0.60;;
5339;SDS011;2692;48.848;8.924;2023-12-22T04:49:50;0.90;;;0.40;;
5339;SDS011;2692;48.848;8.924;2023-12-22T04:52:15;1.30;;;0.50;;
5339;SDS011;2692;48.848;8.924;2023-12-22T04:54:41;1.50;;;0.70;;
5339;SDS011;2692;48.848;8.924;2023-12-22T04:57:06;0.90;;;0.60;;
5339;SDS011;2692;48.848;8.924;2023-12-22T04:59:31;1.00;;;0.40;;
5339;SDS011;2692;48.848;8.924;2023-12-22T05:01:57;1.87;;;1.00;;
5339;SDS011;2692;48.848;8.924;2023-12-22T05:04:22;1.27;;;0.70;;
5339;SDS011;2692;48.848;8.924;2023-12-22T05:06:48;2.70;;;1.07;;
5339;SDS011;2692;48.848;8.924;2023-12-22T05:09:13;3.90;;;1.00;;
5339;SDS011;2692;48.848;8.924;2023-12-22T05:11:38;1.60;;;0.83;;
5339;SDS011;2692;48.848;8.924;2023-12-22T05:14:04;1.37;;;0.77;;
5339;SDS011;2692;48.848;8.924;2023-12-22T05:16:29;1.57;;;0.63;;
5339;SDS011;2692;48.848;8.924;2023-12-22T05:18:56;1.93;;;1.07;;
5339;SDS011;2692;48.848;8.924;2023-12-22T05:21:22;1.70;;;0.67;;
5339;SDS011;2692;48.848;8.924;2023-12-22T05:23:48;2.53;;;1.17;;
5339;SDS011;2692;48.848;8.924;2023-12-22T05:26:20;2.60;;;1.30;;
5339;SDS011;2692;48.848;8.924;2023-12-22T05:28:46;5.27;;;1.20;;
5339;SDS011;2692;48.848;8.924;2023-12-22T05:31:11;2.00;;;1.27;;
5339;SDS011;2692;48.848;8.924;2023-12-22T05:33:37;1.57;;;0.83;;
5339;SDS011;2692;48.848;8.924;2023-12-22T05:36:02;2.70;;;1.03;;
5339;SDS011;2692;48.848;8.924;2023-12-22T05:38:28;3.00;;;1.27;;
5339;SDS011;2692;48.848;8.924;2023-12-22T05:40:53;1.10;;;0.60;;
5339;SDS011;2692;48.848;8.924;2023-12-22T05:43:18;2.00;;;1.00;;
5339;SDS011;2692;48.848;8.924;2023-12-22T05:45:44;2.00;;;1.10;;
5339;SDS011;2692;48.848;8.924;2023-12-22T05:48:09;2.30;;;1.00;;
5339;SDS011;2692;48.848;8.924;2023-12-22T05:50:34;1.20;;;0.53;;
5339;SDS011;2692;48.848;8.924;2023-12-22T05:52:59;1.10;;;0.57;;
5339;SDS011;2692;48.848;8.924;2023-12-22T05:55:25;2.00;;;0.80;;
5339;SDS011;2692;48.848;8.924;2023-12-22T05:57:50;2.83;;;0.90;;
5339;SDS011;2692;48.848;8.924;2023-12-22T06:00:15;1.70;;;0.90;;
5339;SDS011;2692;48.848;8.924;2023-12-22T06:02:42;1.63;;;0.77;;
5339;SDS011;2692;48.848;8.924;2023-12-22T06:05:07;9.43;;;1.50;;
5339;SDS011;2692;48.848;8.924;2023-12-22T06:07:32;1.60;;;0.70;;
5339;SDS011;2692;48.848;8.924;2023-12-22T06:09:58;0.90;;;0.50;;
5339;SDS011;2692;48.848;8.924;2023-12-22T06:12:23;1.63;;;0.90;;
5339;SDS011;2692;48.848;8.924;2023-12-22T06:14:48;1.47;;;0.90;;
5339;SDS011;2692;48.848;8.924;2023-12-22T06:17:14;2.40;;;0.83;;
5339;SDS011;2692;48.848;8.924;2023-12-22T06:19:39;1.33;;;0.63;;
5339;SDS011;2692;48.848;8.924;2023-12-22T06:22:04;4.10;;;1.00;;
5339;SDS011;2692;48.848;8.924;2023-12-22T06:24:30;1.50;;;0.90;;
5339;SDS011;2692;48.848;8.924;2023-12-22T06:26:56;1.93;;;0.63;;
5339;SDS011;2692;48.848;8.924;2023-12-22T06:29:21;2.30;;;0.83;;
5339;SDS011;2692;48.848;8.924;2023-12-22T06:31:46;1.67;;;0.90;;
5339;SDS011;2692;48.848;8.924;2023-12-22T06:34:16;2.90;;;1.20;;
5339;SDS011;2692;48.848;8.924;2023-12-22T06:36:41;5.03;;;1.23;;
5339;SDS011;2692;48.848;8.924;2023-12-22T06:39:07;1.47;;;0.60;;
5339;SDS011;2692;48.848;8.924;2023-12-22T06:41:33;2.50;;;0.70;;
5339;SDS011;2692;48.848;8.924;2023-12-22T06:43:58;1.27;;;0.70;;
5339;SDS011;2692;48.848;8.924;2023-12-22T06:46:27;1.50;;;0.60;;
5339;SDS011;2692;48.848;8.924;2023-12-22T06:48:53;1.67;;;0.60;;
5339;SDS011;2692;48.848;8.924;2023-12-22T06:51:22;1.30;;;0.60;;
5339;SDS011;2692;48.848;8.924;2023-12-22T06:53:49;3.63;;;1.40;;
5339;SDS011;2692;48.848;8.924;2023-12-22T06:56:21;1.27;;;0.63;;
5339;SDS011;2692;48.848;8.924;2023-12-22T06:58:50;1.33;;;0.60;;
5339;SDS011;2692;48.848;8.924;2023-12-22T07:03:58;2.23;;;0.70;;
5339;SDS011;2692;48.848;8.924;2023-12-22T07:06:25;2.20;;;1.10;;
5339;SDS011;2692;48.848;8.924;2023-12-22T07:08:56;2.73;;;0.83;;
5339;SDS011;2692;48.848;8.924;2023-12-22T07:11:22;1.27;;;0.60;;
5339;SDS011;2692;48.848;8.924;2023-12-22T07:13:47;1.73;;;0.80;;
5339;SDS011;2692;48.848;8.924;2023-12-22T07:16:12;1.50;;;0.70;;
5339;SDS011;2692;48.848;8.924;2023-12-22T07:18:38;2.30;;;1.03;;
5339;SDS011;2692;48.848;8.924;2023-12-22T07:21:03;11.83;;;1.37;;
5339;SDS011;2692;48.848;8.924;2023-12-22T07:23:28;1.27;;;0.80;;
5339;SDS011;2692;48.848;8.924;2023-12-22T07:25:54;2.30;;;1.00;;
5339;SDS011;2692;48.848;8.924;2023-12-22T07:28:19;2.30;;;0.67;;
5339;SDS011;2692;48.848;8.924;2023-12-22T07:30:44;2.53;;;1.57;;
5339;SDS011;2692;48.848;8.924;2023-12-22T07:33:10;1.83;;;0.83;;
5339;SDS011;2692;48.848;8.924;2023-12-22T07:35:35;2.50;;;1.63;;
5339;SDS011;2692;48.848;8.924;2023-12-22T07:38:00;1.63;;;0.60;;
5339;SDS011;2692;48.848;8.924;2023-12-22T07:40:27;1.50;;;0.73;;
5339;SDS011;2692;48.848;8.924;2023-12-22T07:42:55;2.23;;;0.77;;
5339;SDS011;2692;48.848;8.924;2023-12-22T07:45:21;4.63;;;1.00;;
5339;SDS011;2692;48.848;8.924;2023-12-22T07:47:46;1.63;;;0.90;;
5339;SDS011;2692;48.848;8.924;2023-12-22T07:50:11;1.00;;;0.60;;
5339;SDS011;2692;48.848;8.924;2023-12-22T07:52:37;1.83;;;0.83;;
5339;SDS011;2692;48.848;8.924;2023-12-22T07:55:07;1.17;;;0.60;;
5339;SDS011;2692;48.848;8.924;2023-12-22T07:57:35;2.00;;;0.80;;
5339;SDS011;2692;48.848;8.924;2023-12-22T08:00:00;1.43;;;0.63;;
5339;SDS011;2692;48.848;8.924;2023-12-22T08:02:25;1.90;;;0.90;;
5339;SDS011;2692;48.848;8.924;2023-12-22T08:04:51;11.80;;;0.90;;
5339;SDS011;2692;48.848;8.924;2023-12-22T08:07:16;2.50;;;0.87;;
5339;SDS011;2692;48.848;8.924;2023-12-22T08:09:41;4.90;;;1.47;;
5339;SDS011;2692;48.848;8.924;2023-12-22T08:12:07;1.43;;;0.80;;
5339;SDS011;2692;48.848;8.924;2023-12-22T08:14:32;1.30;;;0.70;;
5339;SDS011;2692;48.848;8.924;2023-12-22T08:16:57;2.90;;;1.10;;
5339;SDS011;2692;48.848;8.924;2023-12-22T08:19:23;2.10;;;0.90;;
5339;SDS011;2692;48.848;8.924;2023-12-22T08:21:48;2.23;;;1.20;;
5339;SDS011;2692;48.848;8.924;2023-12-22T08:24:13;3.17;;;1.20;;
5339;SDS011;2692;48.848;8.924;2023-12-22T08:26:39;1.83;;;0.97;;
5339;SDS011;2692;48.848;8.924;2023-12-22T08:29:04;3.30;;;1.17;;
5339;SDS011;2692;48.848;8.924;2023-12-22T08:31:29;2.23;;;0.93;;
5339;SDS011;2692;48.848;8.924;2023-12-22T08:33:54;2.00;;;1.00;;
5339;SDS011;2692;48.848;8.924;2023-12-22T08:36:20;4.80;;;1.57;;
5339;SDS011;2692;48.848;8.924;2023-12-22T08:38:46;4.90;;;1.47;;
5339;SDS011;2692;48.848;8.924;2023-12-22T08:41:11;8.93;;;1.23;;
5339;SDS011;2692;48.848;8.924;2023-12-22T08:43:36;2.03;;;1.10;;
5339;SDS011;2692;48.848;8.924;2023-12-22T08:46:03;5.53;;;2.07;;
5339;SDS011;2692;48.848;8.924;2023-12-22T08:48:28;3.87;;;1.20;;
5339;SDS011;2692;48.848;8.924;2023-12-22T08:50:54;1.63;;;1.10;;
5339;SDS011;2692;48.848;8.924;2023-12-22T08:53:19;1.70;;;1.10;;
5339;SDS011;2692;48.848;8.924;2023-12-22T08:55:44;1.63;;;1.00;;
5339;SDS011;2692;48.848;8.924;2023-12-22T08:58:09;2.60;;;1.00;;
5339;SDS011;2692;48.848;8.924;2023-12-22T09:00:35;2.30;;;0.97;;
5339;SDS011;2692;48.848;8.924;2023-12-22T09:03:00;2.07;;;0.90;;
5339;SDS011;2692;48.848;8.924;2023-12-22T09:05:25;2.10;;;1.00;;
5339;SDS011;2692;48.848;8.924;2023-12-22T09:07:51;5.13;;;3.37;;
5339;SDS011;2692;48.848;8.924;2023-12-22T09:10:16;4.43;;;1.43;;
5339;SDS011;2692;48.848;8.924;2023-12-22T09:12:41;5.97;;;2.37;;
5339;SDS011;2692;48.848;8.924;2023-12-22T09:15:07;2.70;;;1.17;;
5339;SDS011;2692;48.848;8.924;2023-12-22T09:17:32;6.87;;;1.50;;
5339;SDS011;2692;48.848;8.924;2023-12-22T09:19:58;2.07;;;1.00;;
5339;SDS011;2692;48.848;8.924;2023-12-22T09:22:23;1.77;;;0.80;;
5339;SDS011;2692;48.848;8.924;2023-12-22T09:24:48;11.73;;;1.97;;
5339;SDS011;2692;48.848;8.924;2023-12-22T09:27:14;2.70;;;1.30;;
5339;SDS011;2692;48.848;8.924;2023-12-22T09:29:39;1.90;;;1.10;;
5339;SDS011;2692;48.848;8.924;2023-12-22T09:32:04;5.03;;;1.63;;
5339;SDS011;2692;48.848;8.924;2023-12-22T09:34:30;6.03;;;1.83;;
5339;SDS011;2692;48.848;8.924;2023-12-22T09:36:55;6.27;;;1.30;;
5339;SDS011;2692;48.848;8.924;2023-12-22T09:39:21;1.63;;;0.90;;
5339;SDS011;2692;48.848;8.924;2023-12-22T09:41:47;2.80;;;1.13;;
5339;SDS011;2692;48.848;8.924;2023-12-22T09:44:14;3.83;;;1.37;;
5339;SDS011;2692;48.848;8.924;2023-12-22T09:46:41;4.10;;;1.40;;
5339;SDS011;2692;48.848;8.924;2023-12-22T09:49:07;2.03;;;1.03;;
5339;SDS011;2692;48.848;8.924;2023-12-22T09:51:32;4.40;;;1.23;;
5339;SDS011;2692;48.848;8.924;2023-12-22T09:53:58;4.50;;;1.13;;
5339;SDS011;2692;48.848;8.924;2023-12-22T09:56:24;2.73;;;1.50;;
5339;SDS011;2692;48.848;8.924;2023-12-22T09:58:50;2.97;;;1.73;;
5339;SDS011;2692;48.848;8.924;2023-12-22T10:01:16;3.53;;;1.33;;
5339;SDS011;2692;48.848;8.924;2023-12-22T10:03:46;3.47;;;1.47;;
5339;SDS011;2692;48.848;8.924;2023-12-22T10:06:11;2.77;;;1.30;;
5339;SDS011;2692;48.848;8.924;2023-12-22T10:08:37;2.30;;;0.93;;
5339;SDS011;2692;48.848;8.924;2023-12-22T10:11:02;3.40;;;1.20;;
5339;SDS011;2692;48.848;8.924;2023-12-22T10:13:29;3.00;;;1.17;;
5339;SDS011;2692;48.848;8.924;2023-12-22T10:15:56;5.60;;;1.97;;
5339;SDS011;2692;48.848;8.924;2023-12-22T10:18:21;1.33;;;0.80;;
5339;SDS011;2692;48.848;8.924;2023-12-22T10:20:47;1.47;;;0.97;;
5339;SDS011;2692;48.848;8.924;2023-12-22T10:23:13;9.40;;;1.40;;
5339;SDS011;2692;48.848;8.924;2023-12-22T10:25:39;3.40;;;1.30;;
5339;SDS011;2692;48.848;8.924;2023-12-22T10:28:05;9.10;;;1.40;;
5339;SDS011;2692;48.848;8.924;2023-12-22T10:30:35;7.00;;;1.93;;
5339;SDS011;2692;48.848;8.924;2023-12-22T10:33:03;3.03;;;1.10;;
5339;SDS011;2692;48.848;8.924;2023-12-22T10:35:29;3.23;;;1.10;;
5339;SDS011;2692;48.848;8.924;2023-12-22T10:37:54;6.90;;;1.43;;
5339;SDS011;2692;48.848;8.924;2023-12-22T10:40:21;1.70;;;1.00;;
5339;SDS011;2692;48.848;8.924;2023-12-22T10:42:48;3.97;;;1.10;;
5339;SDS011;2692;48.848;8.924;2023-12-22T10:45:13;4.30;;;1.57;;
5339;SDS011;2692;48.848;8.924;2023-12-22T10:47:40;2.70;;;0.90;;
5339;SDS011;2692;48.848;8.924;2023-12-22T10:50:05;1.00;;;0.53;;
5339;SDS011;2692;48.848;8.924;2023-12-22T10:52:31;1.80;;;0.97;;
5339;SDS011;2692;48.848;8.924;2023-12-22T10:54:57;1.23;;;0.50;;
5339;SDS011;2692;48.848;8.924;2023-12-22T10:57:22;1.30;;;0.80;;
5339;SDS011;2692;48.848;8.924;2023-12-22T10:59:48;1.00;;;0.50;;
5339;SDS011;2692;48.848;8.924;2023-12-22T11:02:17;2.00;;;0.73;;
5339;SDS011;2692;48.848;8.924;2023-12-22T11:05:00;2.17;;;0.80;;
5339;SDS011;2692;48.848;8.924;2023-12-22T11:07:27;1.03;;;0.63;;
5339;SDS011;2692;48.848;8.924;2023-12-22T11:09:53;2.57;;;1.07;;
5339;SDS011;2692;48.848;8.924;2023-12-22T11:12:21;0.80;;;0.33;;
5339;SDS011;2692;48.848;8.924;2023-12-22T11:14:47;1.10;;;0.40;;
5339;SDS011;2692;48.848;8.924;2023-12-22T11:17:21;2.10;;;1.10;;
5339;SDS011;2692;48.848;8.924;2023-12-22T11:19:47;3.47;;;0.60;;
5339;SDS011;2692;48.848;8.924;2023-12-22T11:22:14;2.10;;;1.07;;
5339;SDS011;2692;48.848;8.924;2023-12-22T11:24:41;1.10;;;0.60;;
5339;SDS011;2692;48.848;8.924;2023-12-22T11:27:06;1.40;;;0.77;;
5339;SDS011;2692;48.848;8.924;2023-12-22T11:29:33;1.00;;;0.33;;
5339;SDS011;2692;48.848;8.924;2023-12-22T11:31:59;1.10;;;0.60;;
5339;SDS011;2692;48.848;8.924;2023-12-22T11:34:28;1.23;;;0.50;;
5339;SDS011;2692;48.848;8.924;2023-12-22T11:36:54;1.17;;;0.50;;
5339;SDS011;2692;48.848;8.924;2023-12-22T11:39:20;1.50;;;0.67;;
5339;SDS011;2692;48.848;8.924;2023-12-22T11:41:45;1.33;;;0.43;;
5339;SDS011;2692;48.848;8.924;2023-12-22T11:44:12;1.20;;;0.53;;
5339;SDS011;2692;48.848;8.924;2023-12-22T11:46:37;1.00;;;0.50;;
5339;SDS011;2692;48.848;8.924;2023-12-22T11:49:03;1.37;;;0.50;;
5339;SDS011;2692;48.848;8.924;2023-12-22T11:51:32;1.00;;;0.50;;
5339;SDS011;2692;48.848;8.924;2023-12-22T11:53:59;0.80;;;0.37;;
5339;SDS011;2692;48.848;8.924;2023-12-22T11:56:25;1.13;;;0.50;;
5339;SDS011;2692;48.848;8.924;2023-12-22T11:58:51;1.23;;;1.03;;
5339;SDS011;2692;48.848;8.924;2023-12-22T12:01:20;1.40;;;0.50;;
5339;SDS011;2692;48.848;8.924;2023-12-22T12:08:59;0.80;;;0.30;;
5339;SDS011;2692;48.848;8.924;2023-12-22T12:14:16;0.90;;;0.30;;
5339;SDS011;2692;48.848;8.924;2023-12-22T12:16:47;0.90;;;0.40;;
5339;SDS011;2692;48.848;8.924;2023-12-22T12:19:13;1.27;;;0.40;;
5339;SDS011;2692;48.848;8.924;2023-12-22T12:21:39;0.80;;;0.40;;
5339;SDS011;2692;48.848;8.924;2023-12-22T12:24:05;1.20;;;0.30;;
5339;SDS011;2692;48.848;8.924;2023-12-22T12:26:30;1.00;;;0.37;;
5339;SDS011;2692;48.848;8.924;2023-12-22T12:28:57;0.80;;;0.30;;
5339;SDS011;2692;48.848;8.924;2023-12-22T12:31:30;0.80;;;0.30;;
5339;SDS011;2692;48.848;8.924;2023-12-22T12:34:00;1.27;;;0.40;;
5339;SDS011;2692;48.848;8.924;2023-12-22T12:36:25;0.80;;;0.23;;
5339;SDS011;2692;48.848;8.924;2023-12-22T12:39:09;0.90;;;0.37;;
5339;SDS011;2692;48.848;8.924;2023-12-22T12:41:40;0.80;;;0.30;;
5339;SDS011;2692;48.848;8.924;2023-12-22T12:44:06;0.80;;;0.20;;
5339;SDS011;2692;48.848;8.924;2023-12-22T12:46:35;0.80;;;0.30;;
5339;SDS011;2692;48.848;8.924;2023-12-22T12:49:05;0.80;;;0.20;;
5339;SDS011;2692;48.848;8.924;2023-12-22T12:51:35;0.80;;;0.30;;
5339;SDS011;2692;48.848;8.924;2023-12-22T12:54:04;1.30;;;0.50;;
5339;SDS011;2692;48.848;8.924;2023-12-22T12:56:37;1.53;;;0.30;;
5339;SDS011;2692;48.848;8.924;2023-12-22T12:59:09;0.80;;;0.30;;
5339;SDS011;2692;48.848;8.924;2023-12-22T13:01:38;0.80;;;0.20;;
5339;SDS011;2692;48.848;8.924;2023-12-22T13:04:04;0.93;;;0.30;;
5339;SDS011;2692;48.848;8.924;2023-12-22T13:06:30;1.40;;;0.37;;
5339;SDS011;2692;48.848;8.924;2023-12-22T13:08:55;0.80;;;0.30;;
5339;SDS011;2692;48.848;8.924;2023-12-22T13:11:24;0.80;;;0.20;;
5339;SDS011;2692;48.848;8.924;2023-12-22T13:13:51;0.90;;;0.30;;
5339;SDS011;2692;48.848;8.924;2023-12-22T13:16:17;0.80;;;0.30;;
5339;SDS011;2692;48.848;8.924;2023-12-22T13:18:44;1.00;;;0.30;;
5339;SDS011;2692;48.848;8.924;2023-12-22T13:21:09;1.30;;;0.43;;
5339;SDS011;2692;48.848;8.924;2023-12-22T13:23:35;0.80;;;0.30;;
5339;SDS011;2692;48.848;8.924;2023-12-22T13:26:00;0.87;;;0.33;;
5339;SDS011;2692;48.848;8.924;2023-12-22T13:28:26;0.80;;;0.30;;
5339;SDS011;2692;48.848;8.924;2023-12-22T13:30:52;0.80;;;0.30;;
5339;SDS011;2692;48.848;8.924;2023-12-22T13:33:17;0.80;;;0.20;;
5339;SDS011;2692;48.848;8.924;2023-12-22T13:35:43;1.00;;;0.50;;
5339;SDS011;2692;48.848;8.924;2023-12-22T13:38:08;0.80;;;0.40;;
5339;SDS011;2692;48.848;8.924;2023-12-22T13:40:34;0.80;;;0.30;;
5339;SDS011;2692;48.848;8.924;2023-12-22T13:43:00;0.80;;;0.20;;
5339;SDS011;2692;48.848;8.924;2023-12-22T13:45:27;0.80;;;0.30;;
5339;SDS011;2692;48.848;8.924;2023-12-22T13:47:52;0.90;;;0.40;;
5339;SDS011;2692;48.848;8.924;2023-12-22T13:50:18;0.80;;;0.20;;
5339;SDS011;2692;48.848;8.924;2023-12-22T13:52:44;0.80;;;0.30;;
5339;SDS011;2692;48.848;8.924;2023-12-22T13:55:13;1.00;;;0.50;;
5339;SDS011;2692;48.848;8.924;2023-12-22T13:57:39;1.20;;;0.73;;
5339;SDS011;2692;48.848;8.924;2023-12-22T14:02:45;1.13;;;0.70;;
5339;SDS011;2692;48.848;8.924;2023-12-22T14:05:11;0.90;;;0.30;;
5339;SDS011;2692;48.848;8.924;2023-12-22T14:07:37;1.37;;;0.47;;
5339;SDS011;2692;48.848;8.924;2023-12-22T14:10:05;1.27;;;0.30;;
5339;SDS011;2692;48.848;8.924;2023-12-22T14:12:31;0.80;;;0.30;;
5339;SDS011;2692;48.848;8.924;2023-12-22T14:14:57;0.80;;;0.30;;
5339;SDS011;2692;48.848;8.924;2023-12-22T14:17:22;0.80;;;0.30;;
5339;SDS011;2692;48.848;8.924;2023-12-22T14:19:47;0.90;;;0.30;;
5339;SDS011;2692;48.848;8.924;2023-12-22T14:22:14;0.90;;;0.40;;
5339;SDS011;2692;48.848;8.924;2023-12-22T14:24:39;0.80;;;0.20;;
5339;SDS011;2692;48.848;8.924;2023-12-22T14:27:05;1.20;;;0.50;;
5339;SDS011;2692;48.848;8.924;2023-12-22T14:29:30;0.80;;;0.30;;
5339;SDS011;2692;48.848;8.924;2023-12-22T14:31:55;0.80;;;0.30;;
5339;SDS011;2692;48.848;8.924;2023-12-22T14:34:21;0.80;;;0.30;;
5339;SDS011;2692;48.848;8.924;2023-12-22T14:36:46;1.10;;;0.30;;
5339;SDS011;2692;48.848;8.924;2023-12-22T14:39:12;0.80;;;0.30;;
5339;SDS011;2692;48.848;8.924;2023-12-22T14:41:42;0.80;;;0.20;;
5339;SDS011;2692;48.848;8.924;2023-12-22T14:44:08;0.80;;;0.30;;
5339;SDS011;2692;48.848;8.924;2023-12-22T14:46:36;0.80;;;0.30;;
5339;SDS011;2692;48.848;8.924;2023-12-22T14:49:02;0.80;;;0.30;;
5339;SDS011;2692;48.848;8.924;2023-12-22T14:51:27;0.90;;;0.30;;
5339;SDS011;2692;48.848;8.924;2023-12-22T14:53:53;0.80;;;0.30;;
5339;SDS011;2692;48.848;8.924;2023-12-22T14:56:18;0.90;;;0.30;;
5339;SDS011;2692;48.848;8.924;2023-12-22T14:58:43;0.90;;;0.40;;
5339;SDS011;2692;48.848;8.924;2023-12-22T15:01:12;0.80;;;0.30;;
5339;SDS011;2692;48.848;8.924;2023-12-22T15:03:38;0.80;;;0.30;;
5339;SDS011;2692;48.848;8.924;2023-12-22T15:06:03;0.80;;;0.30;;
5339;SDS011;2692;48.848;8.924;2023-12-22T15:08:29;0.80;;;0.40;;
5339;SDS011;2692;48.848;8.924;2023-12-22T15:10:54;0.80;;;0.30;;
5339;SDS011;2692;48.848;8.924;2023-12-22T15:13:19;0.80;;;0.30;;
5339;SDS011;2692;48.848;8.924;2023-12-22T15:15:44;1.50;;;0.30;;
5339;SDS011;2692;48.848;8.924;2023-12-22T15:18:10;0.80;;;0.30;;
5339;SDS011;2692;48.848;8.924;2023-12-22T15:20:36;0.80;;;0.40;;
5339;SDS011;2692;48.848;8.924;2023-12-22T15:23:01;0.90;;;0.30;;